Groveport, Ohio
Current Conditions -  °F | °C
As of 6:15 PM on Thursday 27 Nov 2014 (Local Time) from KLCK Reporting Station
Light Snow Light Snow  
Wind Chill: 23°   Ceiling: 2300
Heat Index: 32°   Visibility: 7mi
Dew Point: 26°   Wind: 12mph
Humidity: 78%   Direction: 270°W
Pressure: 30.28"   Gusts: NA
Location:  39.86°N, 82.9°W
Report Text: KLCK 272315Z AUTO 27010KT 7SM -SN BKN023 OVC037 00/M04 A3028 RMK AO2 T10021036
Loading
Personal Weather Stations






























Interactive Weather Map New forecast layout! Learn more

10-Day Weather Forecast

Advertisements
Track Severe Weather on mobile